Time;durP1;ratioP1;P1;durP2;ratioP2;P2;SDS_P1;SDS_P2;PMS_P1;PMS_P2;Temp;Humidity;BMP_temperature;BMP_pressure;BME280_temperature;BME280_humidity;BME280_pressure;Samples;Min_cycle;Max_cycle;Signal;HPM_P1;HPM_P2
2022/05/14 00:02:01;;;;;;;;;;;15.80;87.40;;;;;;4347578;32;43939;-76
2022/05/14 00:04:34;;;;;;;;;;;15.80;86.90;;;;;;4346952;32;42575;-76
2022/05/14 00:07:07;;;;;;;;;;;15.80;87.70;;;;;;4347803;32;20001;-77
2022/05/14 00:09:37;;;;;;;;;;;15.80;86.90;;;;;;4346788;32;42163;-76
2022/05/14 00:14:58;;;;;;;;;;;15.70;87.20;;;;;;4359784;32;42593;-76
2022/05/14 00:17:28;;;;;;;;;;;15.70;87.20;;;;;;4360047;32;41934;-77
2022/05/14 00:20:04;;;;;;;;;;;15.70;87.40;;;;;;4346460;32;43651;-77
2022/05/14 00:22:32;;;;;;;;;;;15.70;87.40;;;;;;4347203;32;43851;-77
2022/05/14 00:25:02;;;;;;;;;;;15.70;87.20;;;;;;4346761;32;42884;-77
2022/05/14 00:27:35;;;;;;;;;;;15.60;87.70;;;;;;4346617;32;44249;-77
2022/05/14 00:30:02;;;;;;;;;;;15.60;86.80;;;;;;4359626;32;42651;-77
2022/05/14 00:32:40;;;;;;;;;;;15.60;87.30;;;;;;4346760;33;41871;-77
2022/05/14 00:35:14;;;;;;;;;;;15.60;87.50;;;;;;4347173;33;43183;-77
2022/05/14 00:37:47;;;;;;;;;;;15.50;87.00;;;;;;4347774;33;20000;-76
2022/05/14 00:40:23;;;;;;;;;;;15.60;86.90;;;;;;4360064;33;45851;-77
2022/05/14 00:42:52;;;;;;;;;;;15.50;87.00;;;;;;4360125;33;43729;-76
2022/05/14 00:45:24;;;;;;;;;;;15.50;87.30;;;;;;4359667;33;42796;-77
2022/05/14 00:47:58;;;;;;;;;;;15.50;86.90;;;;;;4359725;33;43010;-76
2022/05/14 00:50:45;;;;;;;;;;;15.50;87.10;;;;;;4359958;33;42628;-76
2022/05/14 00:53:30;;;;;;;;;;;15.40;86.80;;;;;;4346649;33;44601;-77
2022/05/14 00:55:59;;;;;;;;;;;15.40;86.40;;;;;;4360064;33;43603;-77
2022/05/14 00:58:35;;;;;;;;;;;15.30;86.70;;;;;;4359499;33;42605;-76
2022/05/14 01:01:09;;;;;;;;;;;15.30;87.40;;;;;;4360046;33;43844;-76
2022/05/14 01:03:42;;;;;;;;;;;15.30;87.20;;;;;;4360232;33;43738;-77
2022/05/14 01:06:18;;;;;;;;;;;15.20;87.00;;;;;;4360092;33;43711;-77
2022/05/14 01:08:50;;;;;;;;;;;15.20;87.60;;;;;;4360642;33;20039;-76
2022/05/14 01:11:23;;;;;;;;;;;15.20;87.60;;;;;;4359958;33;43624;-77
2022/05/14 01:13:50;;;;;;;;;;;15.20;87.80;;;;;;4346577;33;44119;-77
2022/05/14 01:16:20;;;;;;;;;;;15.20;87.80;;;;;;4359445;33;43076;-76
2022/05/14 01:18:49;;;;;;;;;;;15.20;87.40;;;;;;4346795;33;44184;-76
2022/05/14 01:21:35;;;;;;;;;;;15.20;87.90;;;;;;4345951;33;44131;-76
2022/05/14 01:26:53;;;;;;;;;;;15.20;87.80;;;;;;4359532;33;43339;-76
2022/05/14 01:29:26;;;;;;;;;;;15.20;87.90;;;;;;4360088;32;42823;-76
2022/05/14 01:31:57;;;;;;;;;;;15.20;87.60;;;;;;4362554;32;44673;-76
2022/05/14 01:34:26;;;;;;;;;;;15.20;88.00;;;;;;4349439;32;43716;-76
2022/05/14 01:36:56;;;;;;;;;;;15.20;88.00;;;;;;4349010;32;43713;-77
2022/05/14 01:39:30;;;;;;;;;;;15.20;88.10;;;;;;4362696;32;20023;-77
2022/05/14 01:42:03;;;;;;;;;;;15.20;88.00;;;;;;4349178;32;43051;-76
2022/05/14 01:44:35;;;;;;;;;;;15.20;87.60;;;;;;4361884;32;44397;-77
2022/05/14 01:47:05;;;;;;;;;;;15.10;87.60;;;;;;4348946;32;44784;-76
2022/05/14 01:49:36;;;;;;;;;;;15.10;88.10;;;;;;4348955;32;43703;-76
2022/05/14 01:52:14;;;;;;;;;;;15.10;88.10;;;;;;4348974;32;42518;-76
2022/05/14 01:54:44;;;;;;;;;;;15.10;87.60;;;;;;4349011;32;43345;-77
2022/05/14 01:57:11;;;;;;;;;;;15.00;87.50;;;;;;4362020;32;44310;-77
2022/05/14 01:59:44;;;;;;;;;;;15.00;88.00;;;;;;4361628;32;45525;-76
2022/05/14 02:02:17;;;;;;;;;;;15.00;87.70;;;;;;4361618;32;44346;-77
2022/05/14 02:04:52;;;;;;;;;;;15.00;87.70;;;;;;4348505;32;43454;-76
2022/05/14 02:07:24;;;;;;;;;;;15.00;88.20;;;;;;4361579;32;42470;-76
2022/05/14 02:10:04;;;;;;;;;;;15.00;88.00;;;;;;4349596;32;20215;-76
2022/05/14 02:12:40;;;;;;;;;;;15.00;87.90;;;;;;4361538;32;43494;-77
2022/05/14 02:15:13;;;;;;;;;;;15.00;87.90;;;;;;4348508;32;43045;-76
2022/05/14 02:17:40;;;;;;;;;;;15.00;88.40;;;;;;4362013;32;44026;-76
2022/05/14 02:20:16;;;;;;;;;;;15.00;88.40;;;;;;4361885;32;44073;-76
2022/05/14 02:22:48;;;;;;;;;;;15.00;88.40;;;;;;4361799;32;42893;-77
2022/05/14 02:25:19;;;;;;;;;;;15.00;88.40;;;;;;4362133;32;44111;-77
2022/05/14 02:27:46;;;;;;;;;;;15.00;88.40;;;;;;4347969;32;43656;-76
2022/05/14 02:30:24;;;;;;;;;;;15.00;88.20;;;;;;4348331;32;43112;-77
2022/05/14 02:32:57;;;;;;;;;;;14.90;88.10;;;;;;4361692;32;44226;-76
2022/05/14 02:35:29;;;;;;;;;;;14.90;88.50;;;;;;4348249;32;44525;-76
2022/05/14 02:37:57;;;;;;;;;;;14.90;88.50;;;;;;4348082;32;42526;-76
2022/05/14 02:40:27;;;;;;;;;;;14.80;88.00;;;;;;4348980;32;20365;-77
2022/05/14 02:43:00;;;;;;;;;;;14.80;88.00;;;;;;4347952;32;45021;-77
2022/05/14 02:45:30;;;;;;;;;;;14.70;88.00;;;;;;4348226;32;44110;-77
2022/05/14 02:48:00;;;;;;;;;;;14.70;88.30;;;;;;4348575;32;43876;-77
2022/05/14 02:50:27;;;;;;;;;;;14.70;88.50;;;;;;4348079;32;44839;-76
2022/05/14 02:53:00;;;;;;;;;;;14.70;88.70;;;;;;4361362;32;44227;-77
2022/05/14 02:55:36;;;;;;;;;;;14.60;88.60;;;;;;4348141;32;44173;-76
2022/05/14 02:58:04;;;;;;;;;;;14.70;89.10;;;;;;4361201;32;43793;-76
2022/05/14 03:00:37;;;;;;;;;;;14.60;89.30;;;;;;4347920;32;43103;-76
2022/05/14 03:03:18;;;;;;;;;;;14.60;89.30;;;;;;4347801;32;42108;-76
2022/05/14 03:05:54;;;;;;;;;;;14.70;89.40;;;;;;4347569;32;43004;-76
2022/05/14 03:08:29;;;;;;;;;;;14.70;89.30;;;;;;4361084;32;43684;-76
2022/05/14 03:11:03;;;;;;;;;;;14.60;88.90;;;;;;4361549;32;20001;-77
2022/05/14 03:13:34;;;;;;;;;;;14.60;89.20;;;;;;4347721;32;44855;-77
2022/05/14 03:16:04;;;;;;;;;;;14.60;89.30;;;;;;4360600;32;43859;-76
2022/05/14 03:18:31;;;;;;;;;;;14.60;89.30;;;;;;4347093;32;43509;-76
2022/05/14 03:21:07;;;;;;;;;;;14.60;89.30;;;;;;4347785;32;42919;-77
2022/05/14 03:23:35;;;;;;;;;;;14.50;89.30;;;;;;4347036;32;44761;-77
2022/05/14 03:26:13;;;;;;;;;;;14.50;89.70;;;;;;4347544;32;42890;-76
2022/05/14 03:28:51;;;;;;;;;;;14.50;90.00;;;;;;4360635;32;43601;-76
2022/05/14 03:31:24;;;;;;;;;;;14.40;89.80;;;;;;4360966;32;43189;-76
2022/05/14 03:33:55;;;;;;;;;;;14.40;89.80;;;;;;4360754;32;42743;-76
2022/05/14 03:36:28;;;;;;;;;;;14.40;90.00;;;;;;4347646;32;43180;-76
2022/05/14 03:38:55;;;;;;;;;;;14.40;90.00;;;;;;4346895;32;44795;-77
2022/05/14 03:41:28;;;;;;;;;;;14.30;90.10;;;;;;4346912;32;43924;-76
2022/05/14 03:43:58;;;;;;;;;;;14.30;90.00;;;;;;4360731;32;43538;-76
2022/05/14 03:46:34;;;;;;;;;;;14.30;90.00;;;;;;4360611;32;43524;-77
2022/05/14 03:49:02;;;;;;;;;;;14.30;90.10;;;;;;4360230;32;42636;-76
2022/05/14 03:51:32;;;;;;;;;;;14.30;90.10;;;;;;4359840;32;42853;-76
2022/05/14 03:54:05;;;;;;;;;;;14.20;90.20;;;;;;4347001;32;43474;-76
2022/05/14 03:56:39;;;;;;;;;;;14.30;90.30;;;;;;4360638;32;43240;-77
2022/05/14 03:59:17;;;;;;;;;;;14.30;90.30;;;;;;4360435;32;43494;-76
2022/05/14 04:01:53;;;;;;;;;;;14.20;90.30;;;;;;4360383;32;43046;-76
2022/05/14 04:04:23;;;;;;;;;;;14.20;90.40;;;;;;4360600;32;44213;-77
2022/05/14 04:06:54;;;;;;;;;;;14.20;90.30;;;;;;4360623;32;43034;-76
2022/05/14 04:09:24;;;;;;;;;;;14.10;90.30;;;;;;4359674;32;45587;-76
2022/05/14 04:11:52;;;;;;;;;;;14.10;90.40;;;;;;4360744;32;20476;-76
2022/05/14 04:14:26;;;;;;;;;;;14.10;90.40;;;;;;4346693;32;42620;-76
2022/05/14 04:16:58;;;;;;;;;;;14.20;90.40;;;;;;4360313;32;43117;-76
2022/05/14 04:19:31;;;;;;;;;;;14.10;90.40;;;;;;4360376;32;45834;-76
2022/05/14 04:21:58;;;;;;;;;;;14.10;90.60;;;;;;4346342;32;43702;-77
2022/05/14 04:24:28;;;;;;;;;;;14.00;90.60;;;;;;4347057;32;43032;-77
2022/05/14 04:27:00;;;;;;;;;;;14.10;90.60;;;;;;4360593;32;43100;-77
2022/05/14 04:29:31;;;;;;;;;;;14.10;90.60;;;;;;4346389;32;43186;-77
2022/05/14 04:31:58;;;;;;;;;;;14.00;90.60;;;;;;4359677;32;44054;-76
2022/05/14 04:34:36;;;;;;;;;;;14.00;90.70;;;;;;4360084;32;46081;-76
2022/05/14 04:37:06;;;;;;;;;;;14.00;90.80;;;;;;4346570;33;43772;-76
2022/05/14 04:39:40;;;;;;;;;;;14.00;90.90;;;;;;4359867;33;44230;-76
2022/05/14 04:42:08;;;;;;;;;;;14.00;90.90;;;;;;4347075;33;20581;-76
2022/05/14 04:44:38;;;;;;;;;;;14.00;91.00;;;;;;4346748;33;43009;-76
2022/05/14 04:47:08;;;;;;;;;;;14.00;91.50;;;;;;4347073;33;44153;-77
2022/05/14 04:49:45;;;;;;;;;;;13.90;91.30;;;;;;4346948;33;43762;-77
2022/05/14 04:52:12;;;;;;;;;;;13.90;91.30;;;;;;4346465;33;42767;-77
2022/05/14 04:54:42;;;;;;;;;;;13.90;91.40;;;;;;4359818;33;43639;-76
2022/05/14 04:57:15;;;;;;;;;;;13.90;91.60;;;;;;4346234;33;43780;-76
2022/05/14 04:59:53;;;;;;;;;;;13.90;91.70;;;;;;4359841;33;44171;-76
2022/05/14 05:05:12;;;;;;;;;;;13.90;91.90;;;;;;4361524;32;42152;-76
2022/05/14 05:07:48;;;;;;;;;;;13.90;92.10;;;;;;4362982;32;43762;-76
2022/05/14 05:10:15;;;;;;;;;;;13.90;92.10;;;;;;4349429;32;43645;-76
2022/05/14 05:12:46;;;;;;;;;;;13.90;92.20;;;;;;4349964;32;20069;-76
2022/05/14 05:15:13;;;;;;;;;;;13.90;92.30;;;;;;4362465;32;41988;-77
2022/05/14 05:17:46;;;;;;;;;;;13.90;92.40;;;;;;4349333;32;43474;-76
2022/05/14 05:20:16;;;;;;;;;;;13.90;92.60;;;;;;4348847;32;42512;-76
2022/05/14 05:22:43;;;;;;;;;;;13.90;92.60;;;;;;4348719;32;42887;-77
2022/05/14 05:25:16;;;;;;;;;;;13.90;92.60;;;;;;4348774;32;42845;-76
2022/05/14 05:27:52;;;;;;;;;;;13.90;92.60;;;;;;4349092;32;43498;-76
2022/05/14 05:30:19;;;;;;;;;;;14.00;92.80;;;;;;4362559;32;43886;-76
2022/05/14 05:32:49;;;;;;;;;;;14.00;92.90;;;;;;4362343;32;43455;-76
2022/05/14 05:35:21;;;;;;;;;;;13.90;93.00;;;;;;4361878;32;44774;-77
2022/05/14 05:37:54;;;;;;;;;;;14.00;93.20;;;;;;4362629;32;43041;-76
2022/05/14 05:40:21;;;;;;;;;;;14.00;93.10;;;;;;4362380;32;43688;-77
2022/05/14 05:42:51;;;;;;;;;;;14.00;92.90;;;;;;4349707;32;20001;-76
2022/05/14 05:45:19;;;;;;;;;;;14.00;92.80;;;;;;4348665;32;43070;-76
2022/05/14 05:47:49;;;;;;;;;;;14.00;92.80;;;;;;4348766;32;44026;-76
2022/05/14 05:50:22;;;;;;;;;;;14.00;92.80;;;;;;4349217;32;43736;-76
2022/05/14 05:52:54;;;;;;;;;;;14.00;92.90;;;;;;4349051;32;42139;-76
2022/05/14 05:58:11;;;;;;;;;;;14.00;93.00;;;;;;4362176;32;43184;-76
2022/05/14 06:00:40;;;;;;;;;;;14.10;92.90;;;;;;4361994;32;44351;-76
2022/05/14 06:03:10;;;;;;;;;;;14.10;93.00;;;;;;4361925;32;43856;-76
2022/05/14 06:05:38;;;;;;;;;;;14.10;92.90;;;;;;4348635;32;46108;-76
2022/05/14 06:08:11;;;;;;;;;;;14.10;93.10;;;;;;4361882;32;43082;-76
2022/05/14 06:10:41;;;;;;;;;;;14.10;93.10;;;;;;4348867;32;43529;-77
2022/05/14 06:13:12;;;;;;;;;;;14.20;93.00;;;;;;4362443;32;20421;-77
2022/05/14 06:15:40;;;;;;;;;;;14.20;93.20;;;;;;4361956;32;43712;-76
2022/05/14 06:18:07;;;;;;;;;;;14.20;93.10;;;;;;4361670;32;42096;-76
2022/05/14 06:20:36;;;;;;;;;;;14.20;93.20;;;;;;4361864;32;43466;-76
2022/05/14 06:23:03;;;;;;;;;;;14.20;93.30;;;;;;4348433;32;43843;-77
2022/05/14 06:25:33;;;;;;;;;;;14.20;93.20;;;;;;4361858;32;42610;-76
2022/05/14 06:28:03;;;;;;;;;;;14.20;93.30;;;;;;4361468;32;42892;-77
2022/05/14 06:30:30;;;;;;;;;;;14.20;93.20;;;;;;4361369;32;43681;-76
2022/05/14 06:33:02;;;;;;;;;;;14.20;93.30;;;;;;4347862;32;43864;-76
2022/05/14 06:35:29;;;;;;;;;;;14.20;93.40;;;;;;4348059;32;43589;-77
2022/05/14 06:37:56;;;;;;;;;;;14.20;93.40;;;;;;4361118;32;43617;-77
2022/05/14 06:40:25;;;;;;;;;;;14.20;93.50;;;;;;4347758;32;42432;-76
2022/05/14 06:42:53;;;;;;;;;;;14.30;93.70;;;;;;4361252;32;42809;-76
2022/05/14 06:45:20;;;;;;;;;;;14.30;93.70;;;;;;4360969;32;44259;-76
2022/05/14 06:47:47;;;;;;;;;;;14.30;93.70;;;;;;4361630;32;43242;-77
2022/05/14 06:50:15;;;;;;;;;;;14.30;93.80;;;;;;4361423;32;44232;-76
2022/05/14 06:52:43;;;;;;;;;;;14.30;93.90;;;;;;4347652;32;42286;-76
2022/05/14 06:55:14;;;;;;;;;;;14.30;94.00;;;;;;4361075;32;43571;-77
2022/05/14 06:57:44;;;;;;;;;;;14.30;94.00;;;;;;4347891;32;42108;-76
2022/05/14 07:00:12;;;;;;;;;;;14.30;94.20;;;;;;4361384;32;43653;-76
2022/05/14 07:02:39;;;;;;;;;;;14.40;94.30;;;;;;4360750;32;42852;-76
2022/05/14 07:07:53;;;;;;;;;;;14.40;93.90;;;;;;4360779;32;42880;-76
2022/05/14 07:10:23;;;;;;;;;;;14.40;94.20;;;;;;4347521;32;43490;-76
2022/05/14 07:12:51;;;;;;;;;;;14.40;94.20;;;;;;4360852;32;45991;-75
2022/05/14 07:15:18;;;;;;;;;;;14.40;94.20;;;;;;4361587;32;20004;-76
2022/05/14 07:17:45;;;;;;;;;;;14.50;94.30;;;;;;4347160;32;43498;-76
2022/05/14 07:20:15;;;;;;;;;;;14.50;94.40;;;;;;4347714;32;43058;-76
2022/05/14 07:22:42;;;;;;;;;;;14.50;94.50;;;;;;4347754;32;43698;-76
2022/05/14 07:25:17;;;;;;;;;;;14.50;94.60;;;;;;4347639;32;44204;-76
2022/05/14 07:27:45;;;;;;;;;;;14.50;94.40;;;;;;4360410;32;44179;-76
2022/05/14 07:30:15;;;;;;;;;;;14.50;94.50;;;;;;4347385;32;42962;-77
2022/05/14 07:32:45;;;;;;;;;;;14.50;94.60;;;;;;4347593;32;43046;-77
2022/05/14 07:35:13;;;;;;;;;;;14.50;94.60;;;;;;4360321;32;42521;-76
2022/05/14 07:37:47;;;;;;;;;;;14.50;94.80;;;;;;4360243;32;44036;-76
2022/05/14 07:40:16;;;;;;;;;;;14.60;94.90;;;;;;4360778;32;43758;-76
2022/05/14 07:42:49;;;;;;;;;;;14.60;94.80;;;;;;4347218;32;44956;-77
2022/05/14 07:45:21;;;;;;;;;;;14.60;94.80;;;;;;4360749;32;43196;-76
2022/05/14 07:47:53;;;;;;;;;;;14.60;94.90;;;;;;4360222;32;44219;-76
2022/05/14 07:50:22;;;;;;;;;;;14.60;94.80;;;;;;4360259;32;43030;-76
2022/05/14 07:52:51;;;;;;;;;;;14.60;94.70;;;;;;4347122;32;43712;-76
2022/05/14 07:55:19;;;;;;;;;;;14.60;94.90;;;;;;4347154;32;42922;-76
2022/05/14 07:57:46;;;;;;;;;;;14.60;94.90;;;;;;4360377;32;43559;-76
2022/05/14 08:00:13;;;;;;;;;;;14.70;94.90;;;;;;4346836;32;41857;-75
2022/05/14 08:02:44;;;;;;;;;;;14.60;95.20;;;;;;4359856;32;44200;-76
2022/05/14 08:05:13;;;;;;;;;;;14.70;94.90;;;;;;4360567;32;43073;-76
2022/05/14 08:07:43;;;;;;;;;;;14.70;95.30;;;;;;4346638;32;43662;-76
2022/05/14 08:10:16;;;;;;;;;;;14.70;95.20;;;;;;4347473;32;43056;-76
2022/05/14 08:12:45;;;;;;;;;;;14.70;95.20;;;;;;4359759;32;43778;-76
2022/05/14 08:15:22;;;;;;;;;;;14.70;95.10;;;;;;4348097;32;43109;-76
2022/05/14 08:17:49;;;;;;;;;;;14.70;95.10;;;;;;4346708;32;45426;-76
2022/05/14 08:20:19;;;;;;;;;;;14.70;95.30;;;;;;4347183;32;43889;-77
2022/05/14 08:25:32;;;;;;;;;;;14.70;95.10;;;;;;4360140;32;44203;-76
2022/05/14 08:28:02;;;;;;;;;;;14.80;95.50;;;;;;4346730;32;43757;-76
2022/05/14 08:30:31;;;;;;;;;;;14.70;95.20;;;;;;4359636;32;42817;-76
2022/05/14 08:32:58;;;;;;;;;;;14.80;95.50;;;;;;4346248;32;42638;-76
2022/05/14 08:35:26;;;;;;;;;;;14.80;95.40;;;;;;4346656;32;44671;-77
2022/05/14 08:37:54;;;;;;;;;;;14.80;95.70;;;;;;4359651;32;43604;-76
2022/05/14 08:40:24;;;;;;;;;;;14.90;95.60;;;;;;4346442;33;42792;-76
2022/05/14 08:42:57;;;;;;;;;;;14.80;95.70;;;;;;4347248;33;43597;-76
2022/05/14 08:45:26;;;;;;;;;;;14.90;95.40;;;;;;4346832;33;43474;-76
2022/05/14 08:48:02;;;;;;;;;;;14.90;95.80;;;;;;4346232;33;42566;-79
2022/05/14 08:50:33;;;;;;;;;;;14.90;95.60;;;;;;4346458;33;42793;-76
2022/05/14 08:53:04;;;;;;;;;;;14.90;95.50;;;;;;4360008;33;44848;-77
2022/05/14 08:55:54;;;;;;;;;;;14.90;95.50;;;;;;4346664;33;41940;-82
2022/05/14 08:58:26;;;;;;;;;;;14.90;95.70;;;;;;4346108;33;44228;-78
2022/05/14 09:00:54;;;;;;;;;;;14.90;95.20;;;;;;4346690;33;45136;-76
2022/05/14 09:03:24;;;;;;;;;;;14.90;95.50;;;;;;4359646;33;43062;-76
2022/05/14 09:05:55;;;;;;;;;;;15.00;95.60;;;;;;4359502;33;44348;-76
2022/05/14 09:08:25;;;;;;;;;;;15.00;95.80;;;;;;4359944;33;43207;-75
2022/05/14 09:10:59;;;;;;;;;;;15.00;95.80;;;;;;4359804;33;43428;-75
2022/05/14 09:13:28;;;;;;;;;;;15.00;95.70;;;;;;4346698;33;44278;-74
2022/05/14 09:15:56;;;;;;;;;;;15.00;95.70;;;;;;4359302;33;44011;-74
2022/05/14 09:18:24;;;;;;;;;;;15.10;95.90;;;;;;4360274;33;23413;-75
2022/05/14 09:20:57;;;;;;;;;;;15.10;95.80;;;;;;4359764;33;43472;-74
2022/05/14 09:23:30;;;;;;;;;;;15.10;96.00;;;;;;4360129;33;43906;-75
2022/05/14 09:26:01;;;;;;;;;;;15.10;95.80;;;;;;4359388;33;43371;-74
2022/05/14 09:28:35;;;;;;;;;;;15.10;96.00;;;;;;4346812;33;43876;-74
2022/05/14 09:31:09;;;;;;;;;;;15.10;96.10;;;;;;4346693;33;44188;-74
2022/05/14 09:33:40;;;;;;;;;;;15.10;96.30;;;;;;4359718;33;43011;-75
2022/05/14 09:36:31;;;;;;;;;;;15.20;96.30;;;;;;4359794;33;45949;-75
2022/05/14 09:39:02;;;;;;;;;;;15.20;96.10;;;;;;4346514;33;44183;-74
2022/05/14 09:41:37;;;;;;;;;;;15.20;96.30;;;;;;4346478;33;43052;-75
2022/05/14 09:44:04;;;;;;;;;;;15.20;96.40;;;;;;4359752;33;44664;-74
2022/05/14 09:46:36;;;;;;;;;;;15.20;96.20;;;;;;4359615;33;44239;-75
2022/05/14 09:49:08;;;;;;;;;;;15.20;96.90;;;;;;4360810;32;20013;-77
2022/05/14 09:51:50;;;;;;;;;;;15.30;96.50;;;;;;4361433;32;41855;-75
2022/05/14 09:54:23;;;;;;;;;;;15.30;96.40;;;;;;4362185;32;43650;-75
2022/05/14 09:57:08;;;;;;;;;;;15.30;96.70;;;;;;4348480;32;43455;-74
2022/05/14 09:59:36;;;;;;;;;;;15.30;96.80;;;;;;4361928;32;42546;-74
2022/05/14 10:02:25;;;;;;;;;;;15.30;96.80;;;;;;4361536;32;43489;-74
2022/05/14 10:05:07;;;;;;;;;;;15.40;97.10;;;;;;4362034;32;45779;-75
2022/05/14 10:07:38;;;;;;;;;;;15.40;96.80;;;;;;4348802;32;43074;-75
2022/05/14 10:10:08;;;;;;;;;;;15.40;96.80;;;;;;4349038;32;44227;-75
2022/05/14 10:12:39;;;;;;;;;;;15.40;96.70;;;;;;4361907;32;43904;-76
2022/05/14 10:15:15;;;;;;;;;;;15.50;97.10;;;;;;4361865;32;43739;-75
2022/05/14 10:17:43;;;;;;;;;;;15.50;97.00;;;;;;4348771;32;43855;-75
2022/05/14 10:20:25;;;;;;;;;;;15.50;96.80;;;;;;4348819;32;20000;-75
2022/05/14 10:28:49;;;;;;;;;;;15.60;96.80;;;;;;4361744;32;43923;-75
2022/05/14 10:31:17;;;;;;;;;;;15.60;96.70;;;;;;4361915;32;43737;-74
2022/05/14 10:33:46;;;;;;;;;;;15.60;96.70;;;;;;4347951;32;42666;-74
2022/05/14 10:36:33;;;;;;;;;;;15.60;96.50;;;;;;4361021;32;45805;-75
2022/05/14 10:39:16;;;;;;;;;;;15.60;96.50;;;;;;4361767;32;44267;-75
2022/05/14 10:41:47;;;;;;;;;;;15.60;96.30;;;;;;4361170;32;44231;-75
2022/05/14 10:44:30;;;;;;;;;;;15.60;96.30;;;;;;4361637;32;43710;-75
2022/05/14 10:47:05;;;;;;;;;;;15.60;96.50;;;;;;4348192;32;42530;-75
2022/05/14 10:49:41;;;;;;;;;;;15.70;96.50;;;;;;4361648;32;45865;-75
2022/05/14 10:52:15;;;;;;;;;;;15.70;96.40;;;;;;4360968;32;43936;-75
2022/05/14 10:54:43;;;;;;;;;;;15.70;96.40;;;;;;4347943;32;42113;-75
2022/05/14 10:57:16;;;;;;;;;;;15.70;96.40;;;;;;4361315;32;43903;-74
2022/05/14 10:59:48;;;;;;;;;;;15.70;96.50;;;;;;4348087;32;43000;-74
2022/05/14 11:02:29;;;;;;;;;;;15.80;96.60;;;;;;4360202;32;42144;-75
2022/05/14 11:04:56;;;;;;;;;;;15.80;96.40;;;;;;4361311;32;43327;-75
2022/05/14 11:07:26;;;;;;;;;;;15.80;96.50;;;;;;4361253;32;43216;-75
2022/05/14 11:09:54;;;;;;;;;;;15.80;96.60;;;;;;4361258;32;44274;-75
2022/05/14 11:12:25;;;;;;;;;;;15.80;96.60;;;;;;4347923;32;43685;-74
2022/05/14 11:14:54;;;;;;;;;;;15.90;96.70;;;;;;4361250;32;44191;-76
2022/05/14 11:17:23;;;;;;;;;;;15.90;96.60;;;;;;4347696;32;43952;-76
2022/05/14 11:19:51;;;;;;;;;;;15.90;96.50;;;;;;4360530;32;42839;-75
2022/05/14 11:22:23;;;;;;;;;;;16.00;96.40;;;;;;4361311;32;20016;-75
2022/05/14 11:24:51;;;;;;;;;;;15.90;96.50;;;;;;4347751;32;44178;-76
2022/05/14 11:27:30;;;;;;;;;;;16.00;96.90;;;;;;4347309;32;43654;-75
2022/05/14 11:30:04;;;;;;;;;;;16.00;96.50;;;;;;4360978;32;43034;-75
2022/05/14 11:32:57;;;;;;;;;;;16.00;96.50;;;;;;4346965;32;42903;-76
2022/05/14 11:35:35;;;;;;;;;;;16.00;96.60;;;;;;4357599;32;43779;-76
2022/05/14 11:38:11;;;;;;;;;;;16.00;96.40;;;;;;4360765;32;43714;-76
2022/05/14 11:40:38;;;;;;;;;;;16.10;96.60;;;;;;4360693;32;43575;-76
2022/05/14 11:43:05;;;;;;;;;;;16.10;96.50;;;;;;4360237;32;42880;-75
2022/05/14 11:45:35;;;;;;;;;;;16.10;96.50;;;;;;4346893;32;42873;-75
2022/05/14 11:48:06;;;;;;;;;;;16.20;96.40;;;;;;4360229;32;42875;-75
2022/05/14 11:50:36;;;;;;;;;;;16.20;96.30;;;;;;4360521;32;42740;-75
2022/05/14 11:53:19;;;;;;;;;;;16.20;96.30;;;;;;4347710;32;20076;-77
2022/05/14 11:55:52;;;;;;;;;;;16.20;96.50;;;;;;4360569;32;43263;-76
2022/05/14 11:58:19;;;;;;;;;;;16.30;96.30;;;;;;4347159;32;42978;-77
2022/05/14 12:00:51;;;;;;;;;;;16.30;96.40;;;;;;4347286;32;42977;-75
2022/05/14 12:03:23;;;;;;;;;;;16.40;96.20;;;;;;4344065;33;43789;-75
2022/05/14 12:05:50;;;;;;;;;;;16.40;96.30;;;;;;4345403;33;43617;-75
2022/05/14 12:08:36;;;;;;;;;;;16.40;96.20;;;;;;4344464;33;42842;-76
2022/05/14 12:11:24;;;;;;;;;;;16.40;96.00;;;;;;4345695;33;44761;-76
2022/05/14 12:14:14;;;;;;;;;;;16.40;96.20;;;;;;4344123;33;42679;-77
2022/05/14 12:16:52;;;;;;;;;;;16.50;96.10;;;;;;4345508;33;43028;-76
2022/05/14 12:19:27;;;;;;;;;;;16.50;96.10;;;;;;4343961;33;43265;-76
2022/05/14 12:22:00;;;;;;;;;;;16.50;95.90;;;;;;4345259;33;42576;-76
2022/05/14 12:24:30;;;;;;;;;;;16.60;96.10;;;;;;4344310;33;42588;-76
2022/05/14 12:27:03;;;;;;;;;;;16.60;96.30;;;;;;4344382;33;43199;-77
2022/05/14 12:29:34;;;;;;;;;;;16.60;95.60;;;;;;4344901;33;43482;-76
2022/05/14 12:34:50;;;;;;;;;;;16.70;95.60;;;;;;4344981;33;43730;-76
2022/05/14 12:37:26;;;;;;;;;;;16.80;95.00;;;;;;4344330;33;43753;-76
2022/05/14 12:39:58;;;;;;;;;;;16.70;95.10;;;;;;4344362;33;43842;-76
2022/05/14 12:42:34;;;;;;;;;;;16.80;95.20;;;;;;4345117;33;42882;-76
2022/05/14 12:45:02;;;;;;;;;;;16.80;95.20;;;;;;4344378;33;43861;-76
2022/05/14 12:47:31;;;;;;;;;;;16.80;95.10;;;;;;4345177;33;43038;-77
2022/05/14 12:50:01;;;;;;;;;;;16.90;95.20;;;;;;4343833;33;43949;-77
2022/05/14 12:52:31;;;;;;;;;;;16.90;95.10;;;;;;4343683;33;43328;-76
2022/05/14 12:55:09;;;;;;;;;;;16.90;95.20;;;;;;4344524;33;20002;-76
2022/05/14 12:57:37;;;;;;;;;;;16.90;95.30;;;;;;4344711;33;42591;-76
2022/05/14 13:00:05;;;;;;;;;;;17.00;95.30;;;;;;4343883;33;42855;-76
2022/05/14 13:02:36;;;;;;;;;;;17.00;95.40;;;;;;4343344;33;43471;-77
2022/05/14 13:05:12;;;;;;;;;;;17.00;95.30;;;;;;4344257;33;44277;-77
2022/05/14 13:07:47;;;;;;;;;;;17.10;95.30;;;;;;4344804;33;43785;-77
2022/05/14 13:10:20;;;;;;;;;;;17.10;95.30;;;;;;4343622;33;42497;-76
2022/05/14 13:12:50;;;;;;;;;;;17.10;95.30;;;;;;4344012;33;43199;-76
2022/05/14 13:15:18;;;;;;;;;;;17.10;95.30;;;;;;4344659;33;43788;-77
2022/05/14 13:17:45;;;;;;;;;;;17.20;95.10;;;;;;4344119;33;43686;-77
2022/05/14 13:20:17;;;;;;;;;;;17.20;95.10;;;;;;4344704;33;43484;-76
2022/05/14 13:22:45;;;;;;;;;;;17.20;95.20;;;;;;4343799;33;43246;-76
2022/05/14 13:25:21;;;;;;;;;;;17.20;95.30;;;;;;4346256;33;20047;-76
2022/05/14 13:27:48;;;;;;;;;;;17.30;95.10;;;;;;4347748;33;42831;-76
2022/05/14 13:30:16;;;;;;;;;;;17.30;94.80;;;;;;4346179;33;43673;-76
2022/05/14 13:32:45;;;;;;;;;;;17.30;94.80;;;;;;4347853;33;43005;-76
2022/05/14 13:38:07;;;;;;;;;;;17.40;94.70;;;;;;4347452;33;43924;-77
2022/05/14 13:40:43;;;;;;;;;;;17.50;94.70;;;;;;4347777;33;43211;-76
2022/05/14 13:43:15;;;;;;;;;;;17.50;94.80;;;;;;4347718;33;43689;-76
2022/05/14 13:46:01;;;;;;;;;;;17.50;94.70;;;;;;4347667;33;43917;-76
2022/05/14 13:48:34;;;;;;;;;;;17.60;94.30;;;;;;4347009;33;43014;-76
2022/05/14 13:51:08;;;;;;;;;;;17.60;94.40;;;;;;4346525;33;45326;-76
2022/05/14 13:53:39;;;;;;;;;;;17.70;94.60;;;;;;4346165;33;42173;-76
2022/05/14 13:56:11;;;;;;;;;;;17.70;94.50;;;;;;4347394;33;20040;-76
2022/05/14 13:58:41;;;;;;;;;;;17.70;94.40;;;;;;4347275;33;43106;-76
2022/05/14 14:01:10;;;;;;;;;;;17.70;94.20;;;;;;4346976;33;43820;-77
2022/05/14 14:03:51;;;;;;;;;;;17.80;94.40;;;;;;4347415;33;43799;-76
2022/05/14 14:06:19;;;;;;;;;;;17.80;94.50;;;;;;4346827;33;42870;-76
2022/05/14 14:08:46;;;;;;;;;;;17.80;94.40;;;;;;4347078;33;43958;-76
2022/05/14 14:11:20;;;;;;;;;;;17.90;94.40;;;;;;4345722;33;43053;-77
2022/05/14 14:13:53;;;;;;;;;;;17.90;94.40;;;;;;4347097;32;44730;-77
2022/05/14 14:16:23;;;;;;;;;;;17.90;94.50;;;;;;4346071;33;44563;-76
2022/05/14 14:18:53;;;;;;;;;;;17.90;94.30;;;;;;4347222;33;43990;-77
2022/05/14 14:21:20;;;;;;;;;;;18.00;94.30;;;;;;4346905;33;42037;-76
2022/05/14 14:23:50;;;;;;;;;;;18.00;94.40;;;;;;4347049;32;43879;-77
2022/05/14 14:26:17;;;;;;;;;;;18.00;94.20;;;;;;4347509;33;19998;-77
2022/05/14 14:28:48;;;;;;;;;;;18.00;94.20;;;;;;4346934;33;44317;-76
2022/05/14 14:31:19;;;;;;;;;;;18.10;94.30;;;;;;4345425;33;42894;-77
2022/05/14 14:33:47;;;;;;;;;;;18.10;94.20;;;;;;4345735;33;45820;-76
2022/05/14 14:36:15;;;;;;;;;;;18.10;94.00;;;;;;4346584;33;43708;-77
2022/05/14 14:38:47;;;;;;;;;;;18.20;94.00;;;;;;4346730;33;42483;-77
2022/05/14 14:41:18;;;;;;;;;;;18.20;93.90;;;;;;4346305;33;44271;-76
2022/05/14 14:43:47;;;;;;;;;;;18.20;93.80;;;;;;4345906;33;43065;-77
2022/05/14 14:46:14;;;;;;;;;;;18.20;93.70;;;;;;4346262;33;42842;-77
2022/05/14 14:48:48;;;;;;;;;;;18.20;93.90;;;;;;4345548;33;42858;-76
2022/05/14 14:51:15;;;;;;;;;;;18.30;93.20;;;;;;4346681;33;43722;-77
2022/05/14 14:53:42;;;;;;;;;;;18.30;93.00;;;;;;4346588;33;43731;-77
2022/05/14 14:56:12;;;;;;;;;;;18.30;93.40;;;;;;4344943;33;43011;-77
2022/05/14 14:58:43;;;;;;;;;;;18.30;93.40;;;;;;4346707;33;43478;-77
2022/05/14 15:01:11;;;;;;;;;;;18.40;93.40;;;;;;4346362;32;44652;-76
2022/05/14 15:03:45;;;;;;;;;;;18.40;92.80;;;;;;4345976;33;43518;-77
2022/05/14 15:06:12;;;;;;;;;;;18.40;92.90;;;;;;4346687;33;46068;-77
2022/05/14 15:08:43;;;;;;;;;;;18.40;93.20;;;;;;4346175;33;42825;-77
2022/05/14 15:11:21;;;;;;;;;;;18.40;93.10;;;;;;4345394;33;43810;-77